Time;durP1;ratioP1;P1;durP2;ratioP2;P2;SDS_P1;SDS_P2;PMS_P1;PMS_P2;Temp;Humidity;BMP_temperature;BMP_pressure;BME280_temperature;BME280_humidity;BME280_pressure;Samples;Min_cycle;Max_cycle;Signal;HPM_P1;HPM_P2
2023/03/26 00:01:06;;;;;;;7.20;5.00;;;6.70;99.90;;;;;;5098991;28;20078;-77
2023/03/26 00:03:34;;;;;;;8.43;4.65;;;6.70;99.90;;;;;;5098963;28;20028;-78
2023/03/26 00:06:11;;;;;;;8.98;5.13;;;6.70;99.90;;;;;;5098996;28;20808;-78
2023/03/26 00:08:39;;;;;;;7.85;5.05;;;6.70;99.90;;;;;;5098840;28;20031;-78
2023/03/26 00:11:06;;;;;;;10.23;4.88;;;6.70;99.90;;;;;;5098812;28;20481;-77
2023/03/26 00:13:33;;;;;;;8.07;5.18;;;6.70;99.90;;;;;;5099864;28;20069;-77
2023/03/26 00:16:00;;;;;;;7.93;5.13;;;6.70;99.90;;;;;;5099847;28;20035;-78
2023/03/26 00:18:30;;;;;;;10.30;6.75;;;6.70;99.90;;;;;;5099944;28;20401;-78
2023/03/26 00:21:03;;;;;;;7.88;5.15;;;6.70;99.90;;;;;;5098765;28;20016;-78
2023/03/26 00:23:30;;;;;;;9.85;5.45;;;6.60;99.90;;;;;;5100050;28;20028;-78
2023/03/26 00:25:56;;;;;;;10.30;6.15;;;6.60;99.90;;;;;;5098586;28;20477;-77
2023/03/26 00:28:23;;;;;;;8.13;5.18;;;6.60;99.90;;;;;;5098434;28;20031;-79
2023/03/26 00:30:55;;;;;;;7.25;5.70;;;6.60;99.90;;;;;;5098575;28;20481;-78
2023/03/26 00:33:22;;;;;;;7.85;5.55;;;6.60;99.90;;;;;;5098424;28;20032;-78
2023/03/26 00:35:55;;;;;;;8.35;5.47;;;6.60;99.90;;;;;;5098548;28;20111;-78
2023/03/26 00:38:22;;;;;;;9.20;5.20;;;6.60;99.90;;;;;;5098449;28;20024;-78
2023/03/26 00:40:49;;;;;;;9.85;5.65;;;6.50;99.90;;;;;;5098458;28;20027;-79
2023/03/26 00:43:19;;;;;;;9.50;5.38;;;6.50;99.90;;;;;;5098115;28;20500;-77
2023/03/26 00:45:50;;;;;;;9.40;5.82;;;6.50;99.90;;;;;;5099996;28;20488;-78
2023/03/26 00:48:16;;;;;;;9.18;6.38;;;6.50;99.90;;;;;;5099590;28;20044;-78
2023/03/26 00:50:45;;;;;;;8.52;5.45;;;6.50;99.90;;;;;;5099673;28;20036;-78
2023/03/26 00:53:12;;;;;;;11.23;6.22;;;6.40;99.90;;;;;;5097049;28;20088;-78
2023/03/26 00:55:39;;;;;;;8.23;6.05;;;6.40;99.90;;;;;;5097836;28;20659;-79
2023/03/26 00:58:05;;;;;;;10.40;5.40;;;6.40;99.90;;;;;;5094393;28;20021;-78
2023/03/26 01:00:33;;;;;;;10.30;5.47;;;6.40;99.90;;;;;;5073818;28;20031;-78
2023/03/26 01:03:00;;;;;;;15.23;6.57;;;6.40;99.90;;;;;;5073153;28;20036;-78
2023/03/26 01:05:35;;;;;;;7.80;4.60;;;6.40;99.90;;;;;;5073009;28;20020;-78
2023/03/26 01:08:17;;;;;;;8.15;4.93;;;6.30;99.90;;;;;;5075688;28;20047;-78
2023/03/26 01:10:49;;;;;;;10.27;4.82;;;6.30;99.90;;;;;;5074670;28;20024;-79
2023/03/26 01:13:19;;;;;;;7.40;4.70;;;6.30;99.90;;;;;;5073131;28;20040;-78
2023/03/26 01:15:49;;;;;;;6.07;4.70;;;6.30;99.90;;;;;;5074144;28;20705;-78
2023/03/26 01:18:17;;;;;;;6.13;4.65;;;6.20;99.90;;;;;;5073673;28;20069;-78
2023/03/26 01:20:45;;;;;;;6.63;4.68;;;6.10;99.90;;;;;;5072496;28;20027;-78
2023/03/26 01:23:14;;;;;;;7.43;5.25;;;6.10;99.90;;;;;;5072288;28;20474;-78
2023/03/26 01:25:47;;;;;;;5.43;4.90;;;6.10;99.90;;;;;;5073470;28;20021;-77
2023/03/26 01:28:16;;;;;;;10.90;6.03;;;6.10;99.90;;;;;;5073252;28;20505;-78
2023/03/26 01:31:00;;;;;;;5.93;5.18;;;6.00;99.90;;;;;;5075160;28;20028;-78
2023/03/26 01:33:42;;;;;;;9.60;6.18;;;6.00;99.90;;;;;;5074110;28;20036;-79
2023/03/26 01:36:16;;;;;;;8.73;4.95;;;6.00;99.90;;;;;;5075591;28;20035;-79
2023/03/26 01:39:12;;;;;;;8.50;6.40;;;6.00;99.90;;;;;;5074178;28;20090;-78
2023/03/26 01:41:46;;;;;;;7.28;5.13;;;6.00;99.90;;;;;;5075339;28;20377;-78
2023/03/26 01:44:31;;;;;;;11.98;5.40;;;6.00;99.90;;;;;;5075247;28;20512;-78
2023/03/26 01:46:58;;;;;;;7.32;4.93;;;6.00;99.90;;;;;;5073768;28;20028;-78
2023/03/26 01:49:27;;;;;;;7.03;4.45;;;6.00;99.90;;;;;;5096753;28;20036;-78
2023/03/26 01:51:55;;;;;;;5.75;4.18;;;6.00;99.90;;;;;;5114563;28;20104;-78
2023/03/26 01:54:24;;;;;;;7.45;4.68;;;6.00;99.90;;;;;;5114367;28;20157;-77
2023/03/26 01:57:24;;;;;;;7.35;3.97;;;6.00;99.90;;;;;;5115641;28;20024;-78
2023/03/26 02:00:28;;;;;;;6.60;3.97;;;6.00;99.90;;;;;;5115708;28;20532;-78
2023/03/26 02:03:18;;;;;;;6.97;4.75;;;5.90;99.90;;;;;;5113610;28;20139;-78
2023/03/26 02:05:58;;;;;;;4.72;3.70;;;5.90;99.90;;;;;;5114160;28;20032;-78
2023/03/26 02:08:40;;;;;;;6.07;4.22;;;5.80;99.90;;;;;;5114168;28;20023;-78
2023/03/26 02:11:11;;;;;;;6.85;4.75;;;5.80;99.90;;;;;;5115389;28;20094;-78
2023/03/26 02:13:38;;;;;;;8.13;5.10;;;5.80;99.90;;;;;;5113969;28;20461;-78
2023/03/26 02:16:07;;;;;;;6.70;5.47;;;5.80;99.90;;;;;;5114079;28;20111;-78
2023/03/26 02:18:37;;;;;;;8.40;6.50;;;5.80;99.90;;;;;;5113992;28;20027;-78
2023/03/26 02:21:09;;;;;;;8.73;6.72;;;5.80;99.90;;;;;;5115147;28;20016;-77
2023/03/26 02:23:35;;;;;;;10.63;7.50;;;5.80;99.90;;;;;;5113884;28;20161;-77
2023/03/26 02:26:06;;;;;;;8.98;7.22;;;5.70;99.90;;;;;;5113881;28;20051;-78
2023/03/26 02:28:31;;;;;;;9.00;7.03;;;5.80;99.90;;;;;;5112589;28;20107;-77
2023/03/26 02:31:00;;;;;;;11.50;7.93;;;5.80;99.90;;;;;;5094570;28;20470;-78
2023/03/26 02:33:29;;;;;;;13.20;8.40;;;5.80;99.90;;;;;;5093173;28;20457;-78
2023/03/26 02:36:00;;;;;;;10.88;8.20;;;5.80;99.90;;;;;;5094361;28;20426;-78
2023/03/26 02:38:26;;;;;;;10.18;8.02;;;5.80;99.90;;;;;;5093184;28;20051;-78
2023/03/26 02:40:54;;;;;;;9.77;7.15;;;5.80;99.90;;;;;;5094425;28;20025;-78
2023/03/26 02:43:19;;;;;;;12.18;7.28;;;5.80;99.90;;;;;;5094469;28;20027;-78
2023/03/26 02:45:45;;;;;;;10.65;8.00;;;5.90;99.90;;;;;;5094334;28;20020;-78
2023/03/26 02:48:11;;;;;;;13.50;8.52;;;5.80;99.90;;;;;;5092808;28;20474;-79
2023/03/26 02:50:38;;;;;;;13.02;7.72;;;5.80;99.90;;;;;;5092795;28;20040;-78
2023/03/26 02:53:03;;;;;;;10.48;8.00;;;5.80;99.90;;;;;;5094010;28;20032;-78
2023/03/26 02:55:29;;;;;;;12.75;8.60;;;5.80;99.90;;;;;;5092980;28;20035;-78
2023/03/26 02:57:55;;;;;;;14.00;8.77;;;5.70;99.90;;;;;;5094108;28;20045;-78
2023/03/26 03:00:21;;;;;;;15.55;10.38;;;5.70;99.90;;;;;;5093003;28;20390;-78
2023/03/26 03:02:51;;;;;;;16.83;9.27;;;5.70;99.90;;;;;;5092807;28;20016;-78
2023/03/26 03:05:17;;;;;;;13.52;9.20;;;5.70;99.90;;;;;;5092716;28;20024;-78
2023/03/26 03:07:45;;;;;;;12.27;9.57;;;5.60;99.90;;;;;;5093992;28;20020;-78
2023/03/26 03:10:12;;;;;;;11.82;9.20;;;5.60;99.90;;;;;;5103106;28;20023;-78
2023/03/26 03:12:39;;;;;;;14.25;9.63;;;5.60;99.90;;;;;;5114071;28;20028;-78
2023/03/26 03:15:06;;;;;;;12.27;9.93;;;5.60;99.90;;;;;;5112643;28;20024;-78
2023/03/26 03:17:31;;;;;;;16.67;10.00;;;5.60;99.90;;;;;;5114029;28;20401;-78
2023/03/26 03:19:57;;;;;;;17.70;9.13;;;5.60;99.90;;;;;;5112420;28;20028;-78
2023/03/26 03:22:22;;;;;;;13.57;9.68;;;5.60;99.90;;;;;;5114106;28;20076;-78
2023/03/26 03:24:50;;;;;;;12.73;7.72;;;5.60;99.90;;;;;;5112745;28;20047;-78
2023/03/26 03:27:19;;;;;;;13.55;8.80;;;5.70;99.90;;;;;;5112725;28;20469;-78
2023/03/26 03:29:45;;;;;;;13.10;9.20;;;5.70;99.90;;;;;;5109222;28;20021;-78
2023/03/26 03:32:11;;;;;;;14.27;8.00;;;5.70;99.90;;;;;;5092318;28;20042;-78
2023/03/26 03:34:37;;;;;;;9.70;7.50;;;5.70;99.90;;;;;;5093668;28;20473;-78
2023/03/26 03:37:04;;;;;;;11.05;7.20;;;5.70;99.90;;;;;;5092374;28;20016;-78
2023/03/26 03:39:29;;;;;;;9.10;6.22;;;5.80;99.90;;;;;;5092207;28;20109;-78
2023/03/26 03:41:55;;;;;;;7.45;5.90;;;5.70;99.90;;;;;;5093489;28;20151;-78
2023/03/26 03:44:20;;;;;;;10.77;6.47;;;5.80;99.90;;;;;;5093458;28;20035;-78
2023/03/26 03:46:48;;;;;;;6.93;5.30;;;5.80;99.90;;;;;;5093498;28;20473;-78
2023/03/26 03:49:14;;;;;;;8.00;6.07;;;5.80;99.90;;;;;;5093162;28;20040;-78
2023/03/26 03:51:41;;;;;;;8.43;5.32;;;5.70;99.90;;;;;;5091902;28;20101;-78
2023/03/26 03:54:07;;;;;;;9.30;6.00;;;5.70;99.90;;;;;;5091981;28;20036;-78
2023/03/26 03:56:33;;;;;;;8.73;5.60;;;5.60;99.90;;;;;;5092008;28;20012;-79
2023/03/26 03:58:58;;;;;;;10.05;6.25;;;5.60;99.90;;;;;;5092011;28;20039;-78
2023/03/26 04:01:24;;;;;;;7.65;5.28;;;5.60;99.90;;;;;;5091977;28;20082;-78
2023/03/26 04:03:50;;;;;;;5.93;5.28;;;5.60;99.90;;;;;;5091989;28;20031;-77
2023/03/26 04:06:17;;;;;;;10.93;6.30;;;5.60;99.90;;;;;;5093505;28;20020;-78
2023/03/26 04:08:44;;;;;;;9.00;6.78;;;5.50;99.90;;;;;;5093186;28;20020;-77
2023/03/26 04:11:10;;;;;;;8.02;5.53;;;5.50;99.90;;;;;;5104600;28;20111;-78
2023/03/26 04:13:36;;;;;;;10.00;5.97;;;5.40;99.90;;;;;;5112181;28;20439;-78
2023/03/26 04:16:02;;;;;;;9.88;5.82;;;5.40;99.90;;;;;;5113727;28;20020;-78
2023/03/26 04:18:29;;;;;;;10.57;6.38;;;5.40;99.90;;;;;;5112179;28;20385;-78
2023/03/26 04:20:54;;;;;;;9.43;7.00;;;5.40;99.90;;;;;;5112297;28;20541;-78
2023/03/26 04:23:21;;;;;;;12.45;8.85;;;5.30;99.90;;;;;;5112065;28;20023;-78
2023/03/26 04:25:52;;;;;;;15.95;10.25;;;5.30;99.90;;;;;;5112157;28;20027;-78
2023/03/26 04:28:45;;;;;;;15.38;11.15;;;5.30;99.90;;;;;;5113429;28;20385;-78
2023/03/26 04:31:14;;;;;;;14.02;10.65;;;5.30;99.90;;;;;;5112213;28;20030;-79
2023/03/26 04:33:45;;;;;;;14.80;10.98;;;5.30;99.90;;;;;;5115815;28;20031;-78
2023/03/26 04:36:11;;;;;;;20.88;12.13;;;5.30;99.90;;;;;;5115955;28;20023;-77
2023/03/26 04:38:43;;;;;;;18.55;11.65;;;5.30;99.90;;;;;;5115892;28;20020;-78
2023/03/26 04:41:11;;;;;;;18.98;12.10;;;5.30;99.90;;;;;;5116065;28;20024;-78
2023/03/26 04:43:41;;;;;;;21.02;11.50;;;5.30;99.90;;;;;;5115751;28;20020;-78
2023/03/26 04:46:09;;;;;;;17.33;10.20;;;5.30;99.90;;;;;;5116924;28;20065;-78
2023/03/26 04:48:35;;;;;;;19.02;10.35;;;5.30;99.90;;;;;;5116746;28;20050;-78
2023/03/26 04:51:01;;;;;;;17.33;10.45;;;5.30;99.90;;;;;;5110220;28;20020;-78
2023/03/26 04:53:27;;;;;;;15.88;9.73;;;5.30;99.90;;;;;;5095024;28;20039;-77
2023/03/26 04:55:58;;;;;;;13.90;9.65;;;5.30;99.90;;;;;;5096426;28;20093;-78
2023/03/26 04:58:31;;;;;;;18.63;11.43;;;5.30;99.90;;;;;;5096430;28;20032;-77
2023/03/26 05:01:00;;;;;;;18.65;12.02;;;5.30;99.90;;;;;;5096479;28;20020;-77
2023/03/26 05:03:30;;;;;;;19.70;11.48;;;5.20;99.90;;;;;;5095004;28;20017;-78
2023/03/26 05:06:00;;;;;;;17.85;10.88;;;5.20;99.90;;;;;;5096281;28;20103;-78
2023/03/26 05:08:27;;;;;;;15.70;11.23;;;5.30;99.90;;;;;;5094798;28;20027;-79
2023/03/26 05:10:54;;;;;;;15.82;10.45;;;5.40;99.90;;;;;;5094787;28;20116;-78
2023/03/26 05:13:20;;;;;;;14.93;11.02;;;5.40;99.90;;;;;;5094718;28;20035;-78
2023/03/26 05:15:45;;;;;;;19.17;10.85;;;5.40;99.90;;;;;;5094666;28;20500;-78
2023/03/26 05:18:11;;;;;;;15.25;10.77;;;5.40;99.90;;;;;;5095835;28;20059;-78
2023/03/26 05:20:37;;;;;;;19.70;11.48;;;5.40;99.90;;;;;;5094651;28;20020;-78
2023/03/26 05:23:02;;;;;;;19.55;11.00;;;5.40;99.90;;;;;;5094811;28;20032;-78
2023/03/26 05:25:28;;;;;;;21.25;11.65;;;5.50;99.90;;;;;;5094784;28;20031;-78
2023/03/26 05:27:54;;;;;;;14.82;10.75;;;5.50;99.90;;;;;;5095909;28;20032;-78
2023/03/26 05:30:20;;;;;;;16.20;10.50;;;5.50;99.90;;;;;;5095880;28;20016;-78
2023/03/26 05:32:47;;;;;;;18.98;10.82;;;5.50;99.90;;;;;;5111771;28;20037;-77
2023/03/26 05:35:15;;;;;;;15.88;9.85;;;5.50;99.90;;;;;;5115001;28;20098;-78
2023/03/26 05:37:43;;;;;;;16.85;9.13;;;5.60;99.90;;;;;;5116054;28;20015;-78
2023/03/26 05:40:10;;;;;;;18.23;9.27;;;5.60;99.90;;;;;;5116067;28;20119;-78
2023/03/26 05:42:39;;;;;;;13.13;7.95;;;5.70;99.90;;;;;;5115471;28;20047;-77
2023/03/26 05:45:09;;;;;;;13.82;7.38;;;5.70;99.90;;;;;;5115984;28;20085;-78
2023/03/26 05:47:35;;;;;;;10.80;7.82;;;5.70;99.90;;;;;;5114373;28;20051;-78
2023/03/26 05:50:01;;;;;;;8.98;6.45;;;5.80;99.90;;;;;;5114752;28;20020;-78
2023/03/26 05:52:27;;;;;;;9.38;6.35;;;5.80;99.90;;;;;;5115524;28;20118;-77
2023/03/26 05:54:52;;;;;;;6.95;5.40;;;5.80;99.90;;;;;;5115753;28;20019;-77
2023/03/26 05:57:18;;;;;;;10.40;5.85;;;5.90;99.90;;;;;;5114428;28;20020;-77
2023/03/26 05:59:44;;;;;;;8.52;5.30;;;6.00;99.90;;;;;;5114775;28;20417;-77
2023/03/26 06:02:10;;;;;;;10.98;4.95;;;6.00;99.90;;;;;;5114385;28;20016;-78
2023/03/26 06:04:44;;;;;;;7.30;4.50;;;6.10;99.90;;;;;;5115542;28;20023;-78
2023/03/26 06:07:10;;;;;;;7.25;4.88;;;6.20;99.90;;;;;;5115600;28;20030;-78
2023/03/26 06:09:40;;;;;;;10.63;5.25;;;6.30;99.90;;;;;;5114160;28;20032;-78
2023/03/26 06:12:07;;;;;;;5.63;4.45;;;6.30;99.90;;;;;;5105676;28;20500;-77
2023/03/26 06:14:34;;;;;;;10.10;4.88;;;6.30;99.90;;;;;;5094763;28;20036;-78
2023/03/26 06:17:00;;;;;;;5.53;4.07;;;6.30;99.90;;;;;;5093775;28;20156;-77
2023/03/26 06:19:25;;;;;;;5.60;4.80;;;6.40;99.90;;;;;;5093588;28;20059;-78
2023/03/26 06:21:51;;;;;;;6.32;4.18;;;6.50;99.90;;;;;;5093543;28;20056;-77
2023/03/26 06:24:18;;;;;;;9.23;4.88;;;6.60;99.90;;;;;;5094826;28;20024;-77
2023/03/26 06:26:45;;;;;;;5.80;3.80;;;6.70;99.90;;;;;;5093692;28;20074;-79
2023/03/26 06:29:11;;;;;;;4.80;3.90;;;6.80;99.90;;;;;;5095002;28;20359;-79
2023/03/26 06:31:36;;;;;;;5.15;3.55;;;7.00;99.90;;;;;;5113402;28;20020;-79
2023/03/26 06:34:02;;;;;;;5.05;3.42;;;7.10;99.90;;;;;;5094066;28;20494;-79
2023/03/26 06:36:27;;;;;;;9.63;3.90;;;7.40;99.90;;;;;;5093180;28;20496;-77
2023/03/26 06:38:53;;;;;;;5.05;3.63;;;7.40;99.90;;;;;;5093071;28;20020;-79
2023/03/26 06:41:19;;;;;;;6.97;4.88;;;7.60;99.90;;;;;;5094045;28;20035;-77
2023/03/26 06:43:44;;;;;;;7.13;3.40;;;7.70;99.90;;;;;;5092855;28;20084;-79
2023/03/26 06:46:11;;;;;;;5.72;3.58;;;7.80;99.90;;;;;;5094254;28;20494;-79
2023/03/26 06:48:37;;;;;;;8.18;3.80;;;7.90;99.90;;;;;;5104883;28;20097;-78
2023/03/26 06:51:03;;;;;;;4.85;3.22;;;7.90;99.90;;;;;;5114761;27;20028;-78
2023/03/26 06:53:28;;;;;;;8.13;3.88;;;8.00;99.90;;;;;;5101544;28;20044;-80
2023/03/26 06:55:54;;;;;;;6.40;3.28;;;7.90;99.90;;;;;;5102893;28;20042;-77
2023/03/26 06:58:21;;;;;;;6.47;3.58;;;7.80;99.90;;;;;;5102063;28;20102;-78
2023/03/26 07:00:46;;;;;;;6.85;3.65;;;7.90;99.90;;;;;;5102395;28;20061;-77
2023/03/26 07:03:12;;;;;;;9.43;3.70;;;7.80;99.90;;;;;;5101657;28;20023;-79
2023/03/26 07:05:40;;;;;;;5.65;2.92;;;7.70;99.90;;;;;;5096545;28;20468;-79
2023/03/26 07:08:05;;;;;;;7.32;3.17;;;7.80;99.90;;;;;;5092599;28;20020;-77
2023/03/26 07:10:31;;;;;;;4.90;2.60;;;7.70;99.90;;;;;;5099073;28;20068;-79
2023/03/26 07:12:57;;;;;;;4.72;2.90;;;7.70;99.90;;;;;;5102774;28;20106;-77
2023/03/26 07:15:23;;;;;;;5.75;3.15;;;7.70;99.90;;;;;;5104499;28;20053;-78
2023/03/26 07:17:48;;;;;;;6.18;3.17;;;7.70;99.90;;;;;;5114053;28;20076;-77
2023/03/26 07:20:14;;;;;;;5.03;3.20;;;7.80;99.90;;;;;;5114087;27;20028;-79
2023/03/26 07:22:40;;;;;;;5.22;2.80;;;7.90;99.90;;;;;;5112906;28;20031;-79
2023/03/26 07:25:06;;;;;;;4.65;2.75;;;7.90;99.90;;;;;;5112755;28;20012;-77
2023/03/26 07:28:09;;;;;;;2.78;2.28;;;7.90;99.90;;;;;;5113931;28;20016;-79
2023/03/26 07:31:20;;;;;;;2.95;2.40;;;8.00;99.90;;;;;;5110496;28;20046;-77
2023/03/26 07:33:54;;;;;;;6.50;2.45;;;8.00;99.90;;;;;;5107766;28;20065;-78
2023/03/26 07:36:28;;;;;;;5.10;2.83;;;7.90;99.90;;;;;;5104262;28;20024;-78
2023/03/26 07:39:04;;;;;;;5.22;2.38;;;7.90;99.70;;;;;;5098160;28;20028;-79
2023/03/26 07:42:08;;;;;;;5.10;2.30;;;7.80;99.90;;;;;;5101212;28;20115;-79
2023/03/26 07:44:50;;;;;;;4.05;2.45;;;7.70;99.90;;;;;;5037020;28;20489;-78
2023/03/26 07:47:31;;;;;;;3.20;2.23;;;7.70;99.90;;;;;;5084422;28;20046;-79
2023/03/26 07:49:58;;;;;;;3.55;2.42;;;7.70;99.90;;;;;;5112189;28;20300;-78
2023/03/26 07:52:25;;;;;;;4.53;2.50;;;7.70;99.90;;;;;;5112077;28;20023;-79
2023/03/26 07:54:51;;;;;;;2.65;2.45;;;7.60;99.90;;;;;;5111963;28;20047;-77
2023/03/26 07:57:46;;;;;;;6.43;3.00;;;7.60;99.90;;;;;;5113313;28;20026;-77
2023/03/26 08:00:36;;;;;;;5.03;2.70;;;7.50;99.90;;;;;;5111629;28;20023;-78
2023/03/26 08:03:01;;;;;;;4.10;2.70;;;7.60;99.90;;;;;;5113356;28;20019;-78
2023/03/26 08:05:37;;;;;;;4.18;3.00;;;7.60;99.90;;;;;;5112677;28;20024;-79
2023/03/26 08:08:23;;;;;;;3.03;2.60;;;7.80;99.90;;;;;;5116075;28;20545;-78
2023/03/26 08:10:57;;;;;;;4.38;2.70;;;8.00;99.90;;;;;;5116022;28;20093;-77
2023/03/26 08:13:44;;;;;;;8.07;4.53;;;8.10;99.90;;;;;;5117107;28;20553;-77
2023/03/26 08:16:41;;;;;;;7.60;3.90;;;8.00;99.90;;;;;;5094911;28;20031;-77
2023/03/26 08:19:30;;;;;;;8.02;3.70;;;8.20;99.90;;;;;;5095782;28;20355;-79
2023/03/26 08:22:12;;;;;;;8.00;3.50;;;8.30;99.90;;;;;;5095776;28;20396;-78
2023/03/26 08:24:47;;;;;;;;;;;8.50;99.90;;;;;;5096324;28;20476;-78
2023/03/26 08:27:26;;;;;;;3.60;2.90;;;8.80;99.90;;;;;;5095530;28;19904;-78
2023/03/26 08:30:24;;;;;;;6.20;3.17;;;9.10;95.00;;;;;;5097220;28;20438;-78
2023/03/26 08:33:12;;;;;;;3.67;2.45;;;9.30;91.00;;;;;;5095875;28;20020;-80
2023/03/26 08:35:41;;;;;;;4.63;2.58;;;9.40;90.30;;;;;;5095478;28;20016;-79
2023/03/26 08:38:08;;;;;;;10.48;3.08;;;9.60;92.80;;;;;;5096242;28;20393;-80
2023/03/26 08:40:33;;;;;;;4.57;3.10;;;9.70;86.80;;;;;;5095001;28;20059;-79
2023/03/26 08:43:18;;;;;;;5.32;3.35;;;9.80;87.10;;;;;;5096481;28;20058;-78
2023/03/26 08:46:14;;;;;;;6.15;3.45;;;10.00;86.80;;;;;;5096372;28;20443;-78
2023/03/26 08:49:04;;;;;;;7.22;4.05;;;9.80;81.60;;;;;;5101336;28;20054;-78
2023/03/26 08:52:01;;;;;;;7.13;2.95;;;10.00;77.90;;;;;;5104849;28;20024;-79
2023/03/26 08:54:45;;;;;;;3.60;2.13;;;10.00;76.70;;;;;;5110450;28;20061;-78
2023/03/26 08:57:44;;;;;;;5.72;2.72;;;9.90;73.90;;;;;;5115260;28;20016;-79
2023/03/26 09:00:43;;;;;;;3.63;2.67;;;9.80;74.30;;;;;;5094733;28;20032;-80
2023/03/26 09:03:21;;;;;;;5.25;3.13;;;9.90;75.80;;;;;;5094643;28;20020;-78
2023/03/26 09:06:08;;;;;;;3.67;2.70;;;10.00;74.40;;;;;;5094720;28;20024;-78
2023/03/26 09:09:03;;;;;;;4.05;2.53;;;9.80;72.70;;;;;;5095755;28;20036;-78
2023/03/26 09:11:47;;;;;;;3.30;2.50;;;10.10;75.80;;;;;;5095902;28;20020;-78
2023/03/26 09:14:49;;;;;;;3.42;2.53;;;10.20;74.80;;;;;;5094354;28;20032;-78
2023/03/26 09:17:36;;;;;;;4.65;3.25;;;10.30;72.30;;;;;;5093805;28;20028;-79
2023/03/26 09:20:07;;;;;;;3.70;2.78;;;10.40;71.80;;;;;;5095792;28;20469;-79
2023/03/26 09:22:52;;;;;;;1.80;1.70;;;10.50;70.50;;;;;;5094790;28;20085;-79
2023/03/26 09:25:40;;;;;;;3.65;1.95;;;10.50;68.30;;;;;;5093994;28;20020;-78
2023/03/26 09:28:44;;;;;;;3.45;2.40;;;10.30;66.80;;;;;;5094776;28;20490;-79
2023/03/26 09:31:39;;;;;;;1.70;1.40;;;10.10;68.30;;;;;;5096630;28;20127;-75
2023/03/26 09:34:23;;;;;;;1.08;1.08;;;10.40;69.20;;;;;;5094594;28;20493;-75
2023/03/26 09:37:05;;;;;;;3.67;2.08;;;10.60;67.20;;;;;;5093365;28;20047;-76
2023/03/26 09:39:41;;;;;;;2.13;1.92;;;10.50;66.00;;;;;;5094578;28;20035;-76
2023/03/26 09:42:27;;;;;;;2.95;1.40;;;10.50;66.50;;;;;;5094570;28;20030;-76
2023/03/26 09:45:38;;;;;;;1.15;1.00;;;10.70;66.30;;;;;;5094635;28;20039;-76
2023/03/26 09:48:20;;;;;;;1.55;1.40;;;10.70;66.20;;;;;;5074350;28;20502;-75
2023/03/26 09:51:04;;;;;;;1.77;1.60;;;10.50;66.00;;;;;;5093186;28;20028;-76
2023/03/26 09:54:04;;;;;;;1.42;1.15;;;10.60;64.80;;;;;;5098451;28;20031;-76
2023/03/26 09:56:37;;;;;;;1.60;1.50;;;10.60;66.80;;;;;;5112022;28;20035;-77
2023/03/26 09:59:28;;;;;;;2.58;2.05;;;10.50;66.30;;;;;;5113325;28;20469;-76
2023/03/26 10:01:59;;;;;;;3.95;2.35;;;10.60;67.00;;;;;;5113993;28;20020;-77
2023/03/26 10:04:36;;;;;;;6.32;4.43;;;10.50;66.90;;;;;;5113061;28;20054;-76
2023/03/26 10:07:14;;;;;;;69.50;39.85;;;10.50;66.80;;;;;;5113866;28;20122;-76
2023/03/26 10:10:07;;;;;;;6.68;3.40;;;10.50;67.30;;;;;;5098973;28;20046;-76
2023/03/26 10:12:38;;;;;;;102.68;49.42;;;10.40;66.00;;;;;;5099259;28;20039;-76
2023/03/26 10:15:10;;;;;;;77.93;38.05;;;10.60;66.00;;;;;;5094846;28;20027;-76
2023/03/26 10:17:54;;;;;;;41.55;20.90;;;11.10;66.90;;;;;;5092463;28;20501;-78
2023/03/26 10:20:36;;;;;;;4.05;2.10;;;11.50;67.30;;;;;;5091089;28;20025;-79
2023/03/26 10:23:05;;;;;;;52.10;29.13;;;11.50;63.10;;;;;;5091110;28;20481;-78
2023/03/26 10:25:55;;;;;;;2.83;1.48;;;11.40;63.40;;;;;;5092354;28;20111;-78
2023/03/26 10:28:31;;;;;;;3.35;1.73;;;11.10;63.70;;;;;;5090543;28;20118;-79
2023/03/26 10:31:04;;;;;;;2.10;1.73;;;10.90;66.50;;;;;;5092178;28;20025;-78
2023/03/26 10:33:52;;;;;;;1.00;0.82;;;11.10;68.10;;;;;;5090889;28;20029;-78
2023/03/26 10:36:17;;;;;;;1.30;0.95;;;11.00;66.70;;;;;;5090856;28;20497;-78
2023/03/26 10:39:01;;;;;;;2.78;1.90;;;10.90;65.60;;;;;;5090558;28;20027;-79
2023/03/26 10:41:30;;;;;;;2.25;1.63;;;11.00;66.90;;;;;;5090764;28;20038;-79
2023/03/26 10:44:05;;;;;;;1.30;1.20;;;11.00;66.60;;;;;;5091974;28;20656;-79
2023/03/26 10:46:36;;;;;;;2.20;2.00;;;11.00;65.90;;;;;;5091942;28;20024;-76
2023/03/26 10:49:27;;;;;;;5.30;2.70;;;11.20;66.80;;;;;;5092676;28;20138;-76
2023/03/26 10:52:02;;;;;;;4.93;2.70;;;11.40;66.50;;;;;;5092591;28;20107;-76
2023/03/26 10:54:49;;;;;;;10.07;3.78;;;11.50;66.80;;;;;;5092294;28;20036;-76
2023/03/26 10:57:37;;;;;;;6.80;2.88;;;11.30;67.30;;;;;;5091820;28;20067;-76
2023/03/26 11:00:24;;;;;;;9.10;4.20;;;11.10;67.10;;;;;;5093845;28;20416;-77
2023/03/26 11:03:19;;;;;;;5.53;3.97;;;10.90;69.60;;;;;;5093711;28;20020;-77
2023/03/26 11:05:56;;;;;;;11.95;7.10;;;10.80;70.40;;;;;;5092537;28;20047;-76
2023/03/26 11:08:37;;;;;;;5.80;4.38;;;10.50;71.60;;;;;;5093494;28;20028;-76
2023/03/26 11:11:18;;;;;;;6.50;4.07;;;10.30;73.30;;;;;;5092665;28;20069;-78
2023/03/26 11:14:07;;;;;;;4.97;4.47;;;10.30;75.50;;;;;;5093472;28;20039;-77
2023/03/26 11:16:55;;;;;;;7.00;4.50;;;10.20;77.20;;;;;;5092123;28;20016;-77
2023/03/26 11:19:35;;;;;;;6.10;4.43;;;10.30;78.30;;;;;;5093684;28;20070;-76
2023/03/26 11:22:15;;;;;;;8.07;5.15;;;10.30;77.90;;;;;;5092385;28;20516;-77
2023/03/26 11:25:08;;;;;;;8.88;4.57;;;10.60;78.70;;;;;;5092131;28;20032;-78
2023/03/26 11:28:03;;;;;;;5.90;3.85;;;11.10;78.90;;;;;;5093505;28;20028;-78
2023/03/26 11:30:50;;;;;;;5.90;3.42;;;11.20;69.90;;;;;;5093290;28;20032;-77
2023/03/26 11:33:22;;;;;;;5.38;3.33;;;11.10;68.10;;;;;;5091781;28;20036;-76
2023/03/26 11:35:51;;;;;;;4.10;2.85;;;11.20;68.40;;;;;;5092313;28;20039;-76
2023/03/26 11:38:42;;;;;;;3.35;2.70;;;11.10;67.80;;;;;;5092005;28;20024;-75
2023/03/26 11:41:21;;;;;;;5.10;3.60;;;11.20;68.60;;;;;;5090564;28;20020;-76
2023/03/26 11:43:52;;;;;;;3.33;3.03;;;11.20;68.00;;;;;;5091016;28;20077;-76
2023/03/26 11:46:21;;;;;;;5.55;3.53;;;11.20;68.70;;;;;;5091152;28;20077;-77
2023/03/26 11:48:52;;;;;;;6.25;3.22;;;11.20;68.10;;;;;;5091301;28;20044;-76
2023/03/26 11:51:26;;;;;;;4.07;2.38;;;11.50;69.50;;;;;;5090060;28;20024;-75
2023/03/26 11:53:53;;;;;;;6.38;5.78;;;11.60;65.90;;;;;;5092075;28;20553;-76
2023/03/26 11:56:29;;;;;;;2.88;2.55;;;11.60;64.40;;;;;;5091797;28;20024;-76
2023/03/26 11:59:04;;;;;;;3.00;2.38;;;11.70;64.50;;;;;;5093043;28;20032;-75
2023/03/26 12:01:50;;;;;;;3.53;2.65;;;11.70;62.90;;;;;;5091772;28;20053;-76
2023/03/26 12:04:23;;;;;;;5.03;3.47;;;11.80;63.20;;;;;;5092770;28;20024;-75
2023/03/26 12:06:56;;;;;;;8.38;4.30;;;12.00;63.50;;;;;;5092799;28;20028;-76
2023/03/26 12:09:22;;;;;;;;;;;12.30;62.00;;;;;;5091963;28;20486;-75
2023/03/26 12:11:51;;;;;;;5.18;2.60;;;12.30;58.20;;;;;;5092790;28;19931;-76
2023/03/26 12:14:22;;;;;;;4.15;2.60;;;12.60;58.80;;;;;;5092602;28;20043;-76
2023/03/26 12:17:03;;;;;;;1.85;1.70;;;12.50;58.50;;;;;;5091493;28;20028;-76
2023/03/26 12:19:43;;;;;;;6.85;3.10;;;12.40;58.00;;;;;;5092772;28;20028;-76
2023/03/26 12:22:36;;;;;;;4.95;2.97;;;12.40;58.40;;;;;;5093105;28;20111;-76
2023/03/26 12:25:21;;;;;;;5.57;2.30;;;12.20;58.10;;;;;;5090112;28;20024;-75
2023/03/26 12:27:49;;;;;;;7.45;4.20;;;12.10;58.30;;;;;;5091308;28;20016;-76
2023/03/26 12:30:18;;;;;;;3.30;2.22;;;12.10;58.10;;;;;;5090847;28;20056;-75
2023/03/26 12:32:44;;;;;;;3.30;1.75;;;12.10;58.70;;;;;;5091781;28;20024;-75
2023/03/26 12:35:26;;;;;;;2.92;2.15;;;11.90;58.60;;;;;;5090637;28;20436;-75
2023/03/26 12:37:53;;;;;;;3.40;2.00;;;11.70;59.00;;;;;;5090336;28;20103;-75
2023/03/26 12:40:29;;;;;;;6.25;2.35;;;11.70;59.60;;;;;;5082939;28;20029;-76
2023/03/26 12:43:00;;;;;;;19.95;9.38;;;11.90;59.80;;;;;;5083115;28;20089;-77
2023/03/26 12:45:35;;;;;;;83.78;36.03;;;12.10;60.20;;;;;;5097769;28;20028;-78
2023/03/26 12:48:01;;;;;;;168.77;73.10;;;12.30;60.10;;;;;;5069383;28;20082;-78
2023/03/26 12:50:53;;;;;;;97.05;40.65;;;12.20;58.70;;;;;;5069831;28;20049;-78
2023/03/26 12:53:30;;;;;;;70.45;28.75;;;12.30;59.00;;;;;;5072205;28;20426;-77
2023/03/26 12:56:16;;;;;;;80.18;33.90;;;12.20;59.00;;;;;;5072253;28;20111;-77
2023/03/26 12:59:13;;;;;;;18.00;7.40;;;12.20;59.30;;;;;;5072602;28;20028;-76
2023/03/26 13:01:44;;;;;;;194.52;87.65;;;12.10;59.00;;;;;;5073489;28;20055;-75
2023/03/26 13:04:32;;;;;;;39.97;17.48;;;12.20;60.10;;;;;;5074652;28;20025;-77
2023/03/26 13:07:06;;;;;;;182.65;82.53;;;12.40;59.40;;;;;;5074557;28;20051;-77
2023/03/26 13:09:47;;;;;;;164.32;72.20;;;12.50;58.80;;;;;;5075993;28;20371;-79
2023/03/26 13:12:28;;;;;;;9.32;4.28;;;12.60;57.70;;;;;;5074521;28;20017;-77
2023/03/26 13:15:15;;;;;;;130.85;58.28;;;12.80;57.50;;;;;;5074468;28;20478;-78
2023/03/26 13:18:02;;;;;;;61.03;27.15;;;12.90;57.60;;;;;;5075668;28;20019;-78
2023/03/26 13:21:05;;;;;;;16.55;7.85;;;13.30;57.40;;;;;;5074340;28;20077;-80
2023/03/26 13:24:32;;;;;;;78.40;25.48;;;13.40;55.70;;;;;;5074198;28;20021;-78